createdAt,value
2023-03-06T00:00:42.845Z,61.77
2023-03-06T00:03:19.726Z,61.73
2023-03-06T00:05:47.344Z,61.75
2023-03-06T00:08:14.803Z,61.72
2023-03-06T00:10:41.985Z,61.67
2023-03-06T00:13:19.019Z,61.80
2023-03-06T00:15:46.805Z,61.73
2023-03-06T00:18:14.778Z,61.83
2023-03-06T00:20:43.873Z,61.96
2023-03-06T00:23:12.054Z,61.95
2023-03-06T00:25:43.420Z,61.95
2023-03-06T00:28:10.646Z,61.96
2023-03-06T00:30:38.335Z,61.87
2023-03-06T00:33:05.412Z,61.90
2023-03-06T00:35:32.620Z,61.86
2023-03-06T00:37:59.935Z,61.94
2023-03-06T00:40:27.482Z,61.99
2023-03-06T00:42:54.603Z,61.93
2023-03-06T00:45:21.953Z,61.94
2023-03-06T00:47:49.079Z,62.05
2023-03-06T00:50:16.444Z,62.08
2023-03-06T00:52:43.636Z,61.94
2023-03-06T00:55:11.247Z,61.83
2023-03-06T00:57:38.391Z,61.92
2023-03-06T01:00:07.040Z,61.95
2023-03-06T01:02:34.243Z,62.04
2023-03-06T01:05:01.566Z,61.93
2023-03-06T01:07:28.890Z,61.83
2023-03-06T01:09:58.268Z,61.77
2023-03-06T01:12:25.468Z,61.88
2023-03-06T01:14:52.491Z,61.85
2023-03-06T01:17:19.627Z,61.93
2023-03-06T01:19:47.044Z,62.03
2023-03-06T01:22:14.229Z,62.02
2023-03-06T01:24:41.325Z,62.09
2023-03-06T01:27:08.552Z,62.01
2023-03-06T01:29:36.047Z,62.11
2023-03-06T01:32:03.483Z,62.08
2023-03-06T01:34:30.636Z,62.14
2023-03-06T01:36:57.807Z,62.09
2023-03-06T01:39:25.179Z,62.04
2023-03-06T01:41:52.532Z,62.10
2023-03-06T01:44:19.634Z,62.09
2023-03-06T01:46:47.436Z,62.11
2023-03-06T01:49:37.852Z,62.09
2023-03-06T01:52:15.469Z,62.25
2023-03-06T01:54:54.930Z,62.15
2023-03-06T01:57:27.304Z,62.23
2023-03-06T02:00:04.656Z,62.15
2023-03-06T02:02:45.670Z,62.35
2023-03-06T02:05:13.187Z,62.34
2023-03-06T02:07:42.690Z,62.27
2023-03-06T02:10:13.701Z,62.32
2023-03-06T02:12:43.815Z,62.26
2023-03-06T02:15:13.738Z,62.34
2023-03-06T02:17:43.248Z,62.25
2023-03-06T02:20:21.515Z,62.19
2023-03-06T02:23:11.601Z,62.39
2023-03-06T02:25:41.184Z,62.35
2023-03-06T02:28:12.297Z,62.33
2023-03-06T02:30:41.178Z,62.33
2023-03-06T02:33:11.234Z,62.38
2023-03-06T02:35:39.870Z,62.44
2023-03-06T02:38:11.244Z,62.35
2023-03-06T02:40:39.675Z,62.48
2023-03-06T02:43:07.977Z,62.37
2023-03-06T02:45:40.858Z,62.30
2023-03-06T02:48:09.497Z,62.32
2023-03-06T02:50:36.617Z,62.21
2023-03-06T02:53:04.051Z,62.28
2023-03-06T02:55:31.652Z,62.32
2023-03-06T02:57:59.628Z,62.33
2023-03-06T03:00:27.418Z,62.40
2023-03-06T03:02:55.438Z,62.42
2023-03-06T03:05:22.927Z,62.40
2023-03-06T03:07:55.882Z,62.43
2023-03-06T03:10:24.088Z,62.36
2023-03-06T03:12:51.543Z,62.44
2023-03-06T03:15:19.820Z,62.30
2023-03-06T03:17:46.947Z,62.31
2023-03-06T03:20:18.853Z,62.32
2023-03-06T03:22:56.283Z,62.32
2023-03-06T03:25:25.629Z,62.30
2023-03-06T03:27:54.086Z,62.40
2023-03-06T03:30:21.685Z,62.40
2023-03-06T03:32:48.947Z,62.43
2023-03-06T03:35:16.271Z,62.50
2023-03-06T03:37:43.463Z,62.59
2023-03-06T03:40:11.283Z,62.64
2023-03-06T03:42:38.616Z,62.54
2023-03-06T03:45:06.353Z,62.64
2023-03-06T03:47:33.538Z,62.67
2023-03-06T03:50:00.737Z,62.53
2023-03-06T03:52:28.024Z,62.55
2023-03-06T03:54:55.637Z,62.47
2023-03-06T03:57:23.001Z,62.46
2023-03-06T03:59:51.857Z,62.46
2023-03-06T04:02:37.644Z,62.59
2023-03-06T04:05:13.145Z,62.59
2023-03-06T04:07:41.715Z,62.55
2023-03-06T04:10:11.073Z,62.57
2023-03-06T04:12:38.786Z,62.56
2023-03-06T04:15:07.891Z,62.52
2023-03-06T04:17:35.547Z,62.65
2023-03-06T04:20:04.980Z,62.77
2023-03-06T04:22:32.788Z,62.75
2023-03-06T04:25:00.350Z,62.77
2023-03-06T04:27:27.683Z,62.70
2023-03-06T04:29:56.553Z,62.65
2023-03-06T04:32:24.224Z,62.68
2023-03-06T04:34:51.855Z,62.74
2023-03-06T04:37:22.357Z,62.79
2023-03-06T04:39:50.237Z,62.68
2023-03-06T04:42:17.394Z,62.76
2023-03-06T04:44:44.853Z,62.77
2023-03-06T04:47:12.638Z,62.80
2023-03-06T04:49:40.208Z,62.75
2023-03-06T04:52:07.899Z,62.76
2023-03-06T04:54:35.014Z,62.84
2023-03-06T04:57:02.173Z,62.76
2023-03-06T04:59:29.529Z,62.74
2023-03-06T05:01:56.723Z,62.80
2023-03-06T05:04:23.909Z,62.75
2023-03-06T05:06:50.974Z,62.96
2023-03-06T05:09:18.089Z,62.92
2023-03-06T05:11:45.197Z,62.95
2023-03-06T05:14:12.307Z,62.89
2023-03-06T05:16:39.938Z,62.91
2023-03-06T05:19:07.128Z,62.82
2023-03-06T05:21:34.360Z,62.78
2023-03-06T05:24:01.414Z,62.71
2023-03-06T05:26:28.460Z,62.82
2023-03-06T05:28:55.559Z,62.98
2023-03-06T05:31:22.766Z,62.95
2023-03-06T05:33:49.939Z,62.86
2023-03-06T05:36:17.086Z,62.85
2023-03-06T05:38:44.212Z,62.82
2023-03-06T05:41:13.155Z,62.72
2023-03-06T05:43:40.389Z,62.87
2023-03-06T05:46:08.300Z,62.78
2023-03-06T05:48:36.332Z,63.00
2023-03-06T05:51:04.784Z,62.87
2023-03-06T05:53:32.673Z,63.10
2023-03-06T05:56:03.259Z,62.99
2023-03-06T05:58:31.736Z,63.15
2023-03-06T06:00:59.024Z,63.18
2023-03-06T06:03:26.324Z,63.30
2023-03-06T06:05:53.496Z,63.00
2023-03-06T06:08:21.171Z,62.89
2023-03-06T06:10:48.234Z,62.86
2023-03-06T06:13:15.383Z,62.95
2023-03-06T06:15:42.457Z,62.90
2023-03-06T06:18:09.649Z,63.07
2023-03-06T06:20:37.929Z,63.03
2023-03-06T06:23:05.697Z,63.08
2023-03-06T06:25:33.287Z,63.01
2023-03-06T06:28:00.383Z,62.99
2023-03-06T06:30:27.511Z,63.01
2023-03-06T06:32:54.634Z,63.20
2023-03-06T06:35:21.761Z,63.14
2023-03-06T06:37:49.882Z,63.32
2023-03-06T06:40:17.383Z,63.18
2023-03-06T06:42:46.667Z,63.27
2023-03-06T06:45:13.743Z,63.32
2023-03-06T06:47:41.776Z,63.33
2023-03-06T06:50:13.093Z,63.39
2023-03-06T06:52:40.751Z,63.22
2023-03-06T06:55:08.596Z,63.36
2023-03-06T06:57:35.746Z,63.49
2023-03-06T07:00:04.631Z,63.49
2023-03-06T07:02:33.017Z,63.37
2023-03-06T07:05:04.606Z,63.50
2023-03-06T07:07:38.110Z,63.46
2023-03-06T07:10:08.563Z,63.52
2023-03-06T07:12:36.773Z,63.45
2023-03-06T07:15:06.100Z,63.53
2023-03-06T07:17:33.194Z,63.61
2023-03-06T07:20:00.219Z,63.58
2023-03-06T07:22:28.111Z,63.49
2023-03-06T07:24:56.150Z,63.54
2023-03-06T07:27:23.979Z,63.56
2023-03-06T07:29:51.124Z,63.56
2023-03-06T07:32:18.636Z,63.73
2023-03-06T07:34:46.574Z,63.82
2023-03-06T07:37:13.855Z,63.73
2023-03-06T07:39:40.935Z,63.79
2023-03-06T07:42:08.066Z,63.72
2023-03-06T07:44:38.922Z,63.44
2023-03-06T07:47:06.614Z,63.60
2023-03-06T07:49:34.656Z,63.70
2023-03-06T07:52:02.085Z,63.73
2023-03-06T07:54:30.838Z,63.71
2023-03-06T07:56:57.908Z,63.62
2023-03-06T07:59:25.804Z,63.42
2023-03-06T08:01:55.606Z,63.57
2023-03-06T08:04:22.757Z,63.68
2023-03-06T08:06:49.801Z,63.77
2023-03-06T08:09:16.905Z,63.73
2023-03-06T08:11:45.389Z,63.76
2023-03-06T08:14:12.432Z,63.71
2023-03-06T08:16:39.658Z,63.66
2023-03-06T08:19:06.967Z,63.48
2023-03-06T08:21:34.190Z,63.62
2023-03-06T08:24:01.238Z,63.57
2023-03-06T08:26:32.303Z,63.68
2023-03-06T08:29:01.384Z,63.50
2023-03-06T08:31:33.862Z,63.58
2023-03-06T08:34:04.300Z,63.65
2023-03-06T08:36:31.574Z,63.67
2023-03-06T08:38:58.816Z,63.77
2023-03-06T08:41:26.326Z,63.70
2023-03-06T08:43:54.260Z,63.69
2023-03-06T08:46:23.638Z,63.93
2023-03-06T08:48:51.404Z,63.71
2023-03-06T08:51:19.474Z,63.79
2023-03-06T08:53:46.658Z,63.83
2023-03-06T08:56:23.424Z,63.82
2023-03-06T08:58:51.026Z,63.78
2023-03-06T09:01:24.490Z,63.72
2023-03-06T09:03:54.923Z,63.72
2023-03-06T09:06:23.067Z,63.64
2023-03-06T09:08:54.096Z,63.71
2023-03-06T09:11:24.582Z,63.67
2023-03-06T09:13:52.322Z,63.77
2023-03-06T09:16:19.707Z,63.77
2023-03-06T09:18:46.776Z,63.74
2023-03-06T09:21:13.835Z,63.75
2023-03-06T09:23:40.927Z,63.78
2023-03-06T09:26:08.530Z,63.71
2023-03-06T09:28:39.170Z,63.67
2023-03-06T09:31:16.703Z,63.59
2023-03-06T09:33:44.233Z,63.83
2023-03-06T09:36:20.322Z,63.60
2023-03-06T09:38:50.016Z,63.53
2023-03-06T09:41:24.727Z,63.56
2023-03-06T09:43:56.433Z,63.43
2023-03-06T09:46:36.763Z,63.40
2023-03-06T09:49:20.765Z,63.41
2023-03-06T09:51:56.506Z,63.38
2023-03-06T09:54:36.154Z,63.12
2023-03-06T09:57:03.639Z,63.29
2023-03-06T09:59:32.119Z,63.26
2023-03-06T10:02:19.251Z,63.44
2023-03-06T10:04:51.835Z,63.22
2023-03-06T10:07:23.958Z,63.33
2023-03-06T10:09:57.178Z,63.19
2023-03-06T10:12:32.755Z,63.18
2023-03-06T10:15:11.930Z,63.24
2023-03-06T10:17:41.499Z,63.06
2023-03-06T10:20:23.049Z,63.19
2023-03-06T10:23:14.657Z,63.10
2023-03-06T10:26:02.455Z,63.14
2023-03-06T10:28:40.791Z,63.10
2023-03-06T10:31:21.440Z,63.13
2023-03-06T10:33:55.740Z,62.96
2023-03-06T10:36:27.709Z,63.03
2023-03-06T10:38:56.856Z,62.99
2023-03-06T10:41:30.391Z,63.18
2023-03-06T10:44:00.618Z,63.24
2023-03-06T10:46:31.268Z,63.28
2023-03-06T10:49:03.476Z,63.15
2023-03-06T10:51:31.595Z,63.20
2023-03-06T10:54:18.166Z,63.08
2023-03-06T10:56:46.815Z,63.15
2023-03-06T10:59:25.708Z,62.91
2023-03-06T11:01:56.192Z,62.65
2023-03-06T11:04:29.182Z,62.50
2023-03-06T11:07:16.002Z,62.62
2023-03-06T11:09:47.856Z,62.57
2023-03-06T11:12:23.353Z,62.68
2023-03-06T11:15:19.010Z,62.64
2023-03-06T11:17:52.141Z,62.67
2023-03-06T11:20:21.487Z,62.67
2023-03-06T11:22:56.548Z,62.63
2023-03-06T11:25:30.558Z,62.41
2023-03-06T11:28:07.443Z,62.55
2023-03-06T11:30:48.282Z,62.76
2023-03-06T11:33:35.350Z,62.63
2023-03-06T11:36:17.163Z,62.55
2023-03-06T11:38:52.955Z,62.53
2023-03-06T11:41:32.076Z,62.63
2023-03-06T11:44:24.738Z,62.63
2023-03-06T11:47:02.916Z,62.69
2023-03-06T11:49:35.076Z,62.64
2023-03-06T11:52:19.821Z,62.57
2023-03-06T11:54:52.035Z,62.69
2023-03-06T11:57:25.201Z,62.58
2023-03-06T12:00:22.846Z,62.47
2023-03-06T12:03:09.406Z,62.52
2023-03-06T12:05:59.774Z,62.63
2023-03-06T12:08:26.880Z,62.46
2023-03-06T12:14:22.048Z,62.32
2023-03-06T12:17:05.845Z,62.26
2023-03-06T12:19:54.314Z,62.23
2023-03-06T12:22:31.280Z,62.16
2023-03-06T12:25:01.594Z,62.24
2023-03-06T12:27:48.843Z,62.33
2023-03-06T12:30:16.047Z,62.48
2023-03-06T12:32:52.184Z,62.45
2023-03-06T12:35:50.822Z,62.39
2023-03-06T12:38:36.898Z,62.42
2023-03-06T12:41:24.442Z,62.40
2023-03-06T12:44:00.301Z,62.46
2023-03-06T12:46:28.318Z,62.49
2023-03-06T12:49:06.352Z,62.28
2023-03-06T12:51:34.588Z,62.41
2023-03-06T12:54:03.413Z,62.52
2023-03-06T12:56:32.080Z,62.34
2023-03-06T12:59:03.178Z,62.28
2023-03-06T13:01:51.495Z,62.39
2023-03-06T13:04:33.756Z,62.39
2023-03-06T13:07:11.865Z,62.35
2023-03-06T13:10:07.020Z,62.53
2023-03-06T13:12:58.259Z,62.47
2023-03-06T13:15:45.919Z,62.45
2023-03-06T13:18:22.085Z,62.33
2023-03-06T13:20:50.975Z,62.32
2023-03-06T13:23:33.458Z,62.35
2023-03-06T13:26:30.654Z,62.34
2023-03-06T13:28:58.535Z,62.30
2023-03-06T13:31:54.096Z,62.37
2023-03-06T13:34:38.777Z,62.32
2023-03-06T13:37:18.628Z,62.33
2023-03-06T13:39:55.062Z,62.43
2023-03-06T13:42:34.647Z,62.41
2023-03-06T13:45:16.452Z,62.37
2023-03-06T13:48:15.888Z,62.38
2023-03-06T13:50:49.183Z,62.39
2023-03-06T13:53:44.816Z,62.52
2023-03-06T13:56:44.024Z,62.43
2023-03-06T13:59:50.536Z,62.45
2023-03-06T14:02:51.768Z,62.51
2023-03-06T14:05:19.803Z,62.58
2023-03-06T14:08:08.118Z,62.50
2023-03-06T14:10:37.118Z,62.39
2023-03-06T14:13:08.203Z,62.33
2023-03-06T14:15:48.511Z,62.31
2023-03-06T14:18:18.753Z,62.51
2023-03-06T14:20:54.117Z,62.59
2023-03-06T14:23:23.474Z,62.57
2023-03-06T14:26:15.663Z,62.58
2023-03-06T14:28:44.639Z,62.56
2023-03-06T14:31:18.130Z,62.60
2023-03-06T14:33:52.408Z,62.60
2023-03-06T14:36:23.194Z,62.69
2023-03-06T14:38:54.055Z,62.65
2023-03-06T14:41:29.782Z,62.62
2023-03-06T14:44:11.959Z,62.63
2023-03-06T14:46:39.043Z,62.78
2023-03-06T14:49:09.175Z,62.71
2023-03-06T14:51:43.871Z,62.82
2023-03-06T14:54:20.028Z,62.62
2023-03-06T14:56:53.250Z,62.74
2023-03-06T14:59:30.918Z,62.55
2023-03-06T15:02:02.612Z,62.62
2023-03-06T15:04:40.629Z,62.62
2023-03-06T15:07:14.972Z,62.58
2023-03-06T15:09:50.868Z,62.65
2023-03-06T15:12:21.357Z,62.69
2023-03-06T15:15:00.372Z,62.68
2023-03-06T15:17:27.523Z,62.81
2023-03-06T15:19:57.312Z,62.76
2023-03-06T15:22:30.861Z,62.75
2023-03-06T15:25:32.623Z,62.67
2023-03-06T15:28:22.124Z,62.64
2023-03-06T15:31:10.910Z,62.72
2023-03-06T15:33:38.165Z,62.86
2023-03-06T15:36:18.495Z,62.77
2023-03-06T15:38:46.746Z,62.70
2023-03-06T15:41:29.895Z,62.71
2023-03-06T15:43:58.328Z,62.81
2023-03-06T15:46:25.606Z,62.81
2023-03-06T15:48:54.782Z,62.82
2023-03-06T15:51:21.943Z,62.80
2023-03-06T15:53:49.357Z,62.79
2023-03-06T15:56:21.988Z,62.83
2023-03-06T15:58:49.170Z,62.80
2023-03-06T16:01:17.759Z,62.67
2023-03-06T16:03:45.954Z,62.60
2023-03-06T16:06:18.431Z,62.76
2023-03-06T16:08:45.812Z,62.83
2023-03-06T16:11:35.414Z,62.86
2023-03-06T16:14:23.988Z,62.71
2023-03-06T16:16:54.243Z,62.71
2023-03-06T16:19:27.774Z,62.78
2023-03-06T16:21:56.727Z,62.88
2023-03-06T16:24:26.291Z,62.79
2023-03-06T16:26:55.257Z,62.78
2023-03-06T16:29:30.238Z,62.94
2023-03-06T16:31:59.001Z,62.94
2023-03-06T16:34:26.246Z,62.98
2023-03-06T16:36:53.488Z,62.99
2023-03-06T16:39:22.977Z,62.99
2023-03-06T16:41:50.802Z,62.91
2023-03-06T16:44:18.319Z,62.83
2023-03-06T16:46:47.589Z,63.03
2023-03-06T16:49:23.344Z,63.08
2023-03-06T16:51:51.678Z,63.19
2023-03-06T16:54:19.595Z,63.11
2023-03-06T16:56:46.813Z,63.14
2023-03-06T16:59:13.880Z,63.07
2023-03-06T17:01:44.884Z,63.03
2023-03-06T17:04:12.326Z,63.01
2023-03-06T17:06:39.923Z,62.89
2023-03-06T17:09:07.229Z,62.83
2023-03-06T17:11:38.638Z,62.96
2023-03-06T17:14:07.073Z,62.91
2023-03-06T17:16:37.222Z,63.03
2023-03-06T17:19:04.546Z,62.94
2023-03-06T17:21:32.045Z,63.04
2023-03-06T17:24:01.758Z,63.16
2023-03-06T17:26:28.934Z,63.08
2023-03-06T17:28:56.316Z,63.16
2023-03-06T17:31:26.796Z,63.03
2023-03-06T17:33:59.168Z,63.22
2023-03-06T17:36:28.154Z,63.15
2023-03-06T17:38:56.825Z,63.06
2023-03-06T17:41:24.950Z,63.14
2023-03-06T17:43:56.076Z,62.95
2023-03-06T17:46:23.304Z,63.02
2023-03-06T17:48:50.791Z,63.05
2023-03-06T17:51:18.000Z,63.04
2023-03-06T17:53:45.533Z,62.98
2023-03-06T17:56:14.083Z,63.10
2023-03-06T17:58:41.649Z,63.04
2023-03-06T18:01:15.687Z,63.14
2023-03-06T18:03:48.263Z,63.18
2023-03-06T18:06:16.627Z,63.22
2023-03-06T18:08:44.142Z,63.26
2023-03-06T18:11:11.646Z,63.24
2023-03-06T18:13:41.530Z,63.33
2023-03-06T18:16:09.837Z,63.38
2023-03-06T18:18:37.060Z,63.26
2023-03-06T18:21:13.709Z,63.37
2023-03-06T18:23:41.312Z,63.33
2023-03-06T18:26:11.730Z,63.30
2023-03-06T18:28:42.476Z,63.34
2023-03-06T18:31:21.691Z,63.27
2023-03-06T18:33:49.637Z,63.31
2023-03-06T18:36:17.511Z,63.31
2023-03-06T18:38:45.772Z,63.47
2023-03-06T18:41:13.730Z,63.54
2023-03-06T18:43:40.922Z,63.43
2023-03-06T18:46:08.778Z,63.49
2023-03-06T18:48:36.629Z,63.47
2023-03-06T18:51:06.068Z,63.48
2023-03-06T18:53:33.227Z,63.64
2023-03-06T18:56:00.488Z,63.58
2023-03-06T18:58:27.741Z,63.58
2023-03-06T19:00:55.274Z,63.55
2023-03-06T19:03:23.529Z,63.51
2023-03-06T19:05:50.602Z,63.49
2023-03-06T19:08:18.495Z,63.50
2023-03-06T19:10:47.095Z,63.54
2023-03-06T19:13:14.883Z,63.49
2023-03-06T19:15:47.225Z,63.39
2023-03-06T19:18:17.806Z,63.42
2023-03-06T19:20:45.419Z,63.57
2023-03-06T19:23:12.642Z,63.46
2023-03-06T19:25:40.054Z,63.55
2023-03-06T19:28:07.381Z,63.61
2023-03-06T19:30:34.788Z,63.61
2023-03-06T19:33:01.888Z,63.64
2023-03-06T19:35:29.394Z,63.69
2023-03-06T19:37:59.413Z,63.52
2023-03-06T19:40:26.493Z,63.67
2023-03-06T19:42:53.589Z,63.65
2023-03-06T19:45:20.663Z,63.67
2023-03-06T19:47:49.346Z,63.59
2023-03-06T19:50:16.666Z,63.67
2023-03-06T19:52:43.696Z,63.60
2023-03-06T19:55:10.886Z,63.67
2023-03-06T19:57:37.954Z,63.70
2023-03-06T20:00:05.736Z,63.74
2023-03-06T20:02:39.806Z,63.71
2023-03-06T20:05:09.318Z,63.69
2023-03-06T20:07:36.643Z,63.73
2023-03-06T20:10:04.662Z,63.70
2023-03-06T20:12:33.302Z,63.82
2023-03-06T20:15:00.391Z,63.89
2023-03-06T20:17:27.701Z,63.81
2023-03-06T20:19:55.096Z,63.71
2023-03-06T20:22:22.178Z,63.60
2023-03-06T20:24:49.259Z,63.55
2023-03-06T20:27:16.619Z,63.48
2023-03-06T20:29:44.889Z,63.59
2023-03-06T20:32:13.371Z,63.59
2023-03-06T20:34:40.815Z,63.61
2023-03-06T20:37:10.261Z,63.62
2023-03-06T20:39:37.802Z,63.67
2023-03-06T20:42:05.876Z,63.62
2023-03-06T20:44:33.260Z,63.66
2023-03-06T20:47:00.357Z,63.67
2023-03-06T20:49:28.581Z,63.68
2023-03-06T20:51:56.885Z,63.71
2023-03-06T20:54:23.964Z,63.71
2023-03-06T20:56:51.036Z,63.67
2023-03-06T20:59:18.456Z,63.65
2023-03-06T21:01:47.000Z,63.65
2023-03-06T21:04:14.673Z,63.71
2023-03-06T21:06:46.402Z,63.69
2023-03-06T21:09:16.832Z,63.62
2023-03-06T21:11:44.414Z,63.64
2023-03-06T21:14:13.354Z,63.64
2023-03-06T21:16:41.070Z,63.82
2023-03-06T21:19:08.198Z,63.82
2023-03-06T21:21:35.702Z,63.73
2023-03-06T21:24:02.853Z,63.63
2023-03-06T21:26:33.846Z,63.74
2023-03-06T21:29:02.028Z,63.79
2023-03-06T21:31:30.654Z,63.74
2023-03-06T21:33:59.087Z,63.74
2023-03-06T21:36:27.364Z,63.59
2023-03-06T21:38:55.152Z,63.61
2023-03-06T21:41:27.039Z,63.51
2023-03-06T21:43:59.262Z,63.51
2023-03-06T21:46:27.574Z,63.66
2023-03-06T21:48:55.895Z,63.67
2023-03-06T21:51:24.197Z,63.72
2023-03-06T21:53:52.498Z,63.58
2023-03-06T21:56:22.440Z,63.64
2023-03-06T21:58:49.593Z,63.75
2023-03-06T22:01:23.726Z,63.67
2023-03-06T22:03:51.413Z,63.53
2023-03-06T22:06:21.562Z,63.56
2023-03-06T22:08:49.048Z,63.59
2023-03-06T22:11:19.219Z,63.58
2023-03-06T22:13:48.199Z,63.60
2023-03-06T22:16:15.936Z,63.53
2023-03-06T22:18:47.763Z,63.62
2023-03-06T22:21:17.207Z,63.55
2023-03-06T22:23:44.500Z,63.60
2023-03-06T22:26:13.658Z,63.71
2023-03-06T22:28:41.767Z,63.80
2023-03-06T22:31:13.732Z,63.62
2023-03-06T22:33:41.855Z,63.77
2023-03-06T22:36:11.543Z,63.76
2023-03-06T22:38:40.649Z,63.76
2023-03-06T22:41:09.275Z,63.70
2023-03-06T22:43:36.937Z,63.60
2023-03-06T22:46:06.830Z,63.76
2023-03-06T22:48:34.285Z,63.63
2023-03-06T22:51:03.607Z,63.67
2023-03-06T22:53:30.849Z,63.68
2023-03-06T22:55:59.664Z,63.72
2023-03-06T22:58:28.517Z,63.76
2023-03-06T23:00:55.703Z,63.68
2023-03-06T23:03:23.022Z,63.79
2023-03-06T23:05:50.521Z,63.80
2023-03-06T23:08:17.627Z,63.75
2023-03-06T23:10:44.644Z,63.78
2023-03-06T23:13:30.152Z,63.83
2023-03-06T23:16:15.864Z,63.61
2023-03-06T23:19:01.624Z,63.59
2023-03-06T23:21:47.181Z,63.65
2023-03-06T23:24:36.736Z,63.60
2023-03-06T23:27:04.022Z,63.57
2023-03-06T23:29:31.162Z,63.54
2023-03-06T23:31:58.289Z,63.58
2023-03-06T23:34:25.551Z,63.50
2023-03-06T23:36:52.648Z,63.61
2023-03-06T23:39:20.633Z,63.69
2023-03-06T23:41:47.785Z,63.67
2023-03-06T23:44:14.862Z,63.64
2023-03-06T23:46:42.011Z,63.62
2023-03-06T23:49:09.190Z,63.73
2023-03-06T23:51:36.284Z,63.72
2023-03-06T23:54:03.412Z,63.71
2023-03-06T23:56:30.439Z,63.68
2023-03-06T23:58:57.458Z,63.70
